Time;durP1;ratioP1;P1;durP2;ratioP2;P2;SDS_P1;SDS_P2;PMS_P1;PMS_P2;Temp;Humidity;BMP_temperature;BMP_pressure;BME280_temperature;BME280_humidity;BME280_pressure;Samples;Min_cycle;Max_cycle;Signal;HPM_P1;HPM_P2
2021/12/28 00:01:57;;;;;;;111.20;49.53;;;5.70;99.90;;;;;;5000619;28;20108;-73
2021/12/28 00:08:19;;;;;;;116.95;50.10;;;5.80;99.90;;;;;;4925044;29;20043;-74
2021/12/28 00:23:07;;;;;;;126.47;54.22;;;5.90;99.90;;;;;;4855164;29;20510;-73
2021/12/28 00:27:01;;;;;;;124.43;57.80;;;6.00;99.90;;;;;;4950007;28;20057;-73
2021/12/28 00:30:30;;;;;;;145.73;58.00;;;6.10;99.90;;;;;;4983168;28;20401;-73
2021/12/28 00:41:47;;;;;;;148.15;57.15;;;6.20;99.90;;;;;;4793491;29;20058;-73
2021/12/28 00:46:00;;;;;;;151.45;59.35;;;6.30;99.90;;;;;;4837016;29;20064;-73
2021/12/28 00:49:10;;;;;;;185.07;64.75;;;6.30;99.90;;;;;;4893508;29;20054;-73
2021/12/28 01:00:14;;;;;;;;;;;;;;;;;;;;;
2021/12/28 01:03:28;;;;;;;229.95;71.10;;;6.40;99.90;;;;;;4894817;29;20048;-74
2021/12/28 01:07:20;;;;;;;204.13;67.95;;;6.40;99.90;;;;;;4882118;29;20043;-74
2021/12/28 01:11:12;;;;;;;207.25;67.80;;;6.40;99.90;;;;;;4849785;29;20060;-74
2021/12/28 01:14:30;;;;;;;216.35;70.40;;;6.50;99.90;;;;;;4893512;29;20043;-74
2021/12/28 01:18:09;;;;;;;240.48;72.18;;;6.50;99.90;;;;;;4967913;28;20054;-73
2021/12/28 01:25:27;;;;;;;;;;;;;;;;;;;;;
2021/12/28 01:29:01;;;;;;;267.50;74.63;;;6.60;99.90;;;;;;4925524;29;20079;-73
2021/12/28 01:37:27;;;;;;;;;;;;;;;;;;;;;
2021/12/28 01:41:13;;;;;;;321.10;72.82;;;6.60;99.90;;;;;;4964529;28;20062;-73
2021/12/28 01:45:04;;;;;;;;;;;;;;;;;;;;;
2021/12/28 01:48:22;;;;;;;337.83;77.32;;;6.60;99.90;;;;;;5008506;23;20037;-73
2021/12/28 01:50:51;;;;;;;416.75;83.03;;;6.60;99.90;;;;;;4993915;28;20484;-73
2021/12/28 01:53:17;;;;;;;385.40;81.43;;;6.60;99.90;;;;;;4992006;28;20042;-72
2021/12/28 01:55:49;;;;;;;348.70;78.72;;;6.60;99.90;;;;;;5013804;28;20041;-72
2021/12/28 01:58:15;;;;;;;358.40;78.40;;;6.60;99.90;;;;;;4996338;28;20405;-72
2021/12/28 02:00:43;;;;;;;288.98;76.35;;;6.60;99.90;;;;;;5004279;28;20041;-72
2021/12/28 02:03:12;;;;;;;437.95;86.90;;;6.60;99.90;;;;;;4988439;28;20060;-72
2021/12/28 02:05:38;;;;;;;442.00;84.65;;;6.60;99.90;;;;;;4986146;28;20036;-72
2021/12/28 02:08:06;;;;;;;427.75;82.43;;;6.60;99.90;;;;;;5010348;28;20089;-72
2021/12/28 02:10:33;;;;;;;544.33;90.45;;;6.60;99.90;;;;;;5006206;28;20053;-72
2021/12/28 02:12:59;;;;;;;417.10;84.85;;;6.60;99.90;;;;;;5008786;28;20120;-72
2021/12/28 02:15:25;;;;;;;502.05;88.75;;;6.60;99.90;;;;;;4994102;28;20076;-72
2021/12/28 02:17:50;;;;;;;550.00;88.78;;;6.60;99.90;;;;;;4985518;28;20042;-72
2021/12/28 02:20:19;;;;;;;388.58;81.35;;;6.60;99.90;;;;;;4984247;28;20042;-72
2021/12/28 02:22:44;;;;;;;467.08;86.30;;;6.70;99.90;;;;;;4983581;28;20038;-72
2021/12/28 02:25:12;;;;;;;463.27;87.95;;;6.60;99.90;;;;;;4990985;28;20056;-72
2021/12/28 02:27:38;;;;;;;364.65;77.00;;;6.70;99.90;;;;;;4989048;28;20045;-72
2021/12/28 02:30:08;;;;;;;428.55;85.72;;;6.70;99.90;;;;;;4986528;28;20049;-72
2021/12/28 02:32:35;;;;;;;316.85;77.20;;;6.70;99.90;;;;;;4991694;28;20409;-72
2021/12/28 02:35:00;;;;;;;324.48;79.20;;;6.70;99.90;;;;;;4990247;28;20053;-72
2021/12/28 02:37:27;;;;;;;294.42;77.22;;;6.70;99.90;;;;;;4991559;28;20490;-72
2021/12/28 02:39:53;;;;;;;359.30;81.93;;;6.80;99.90;;;;;;5004639;28;20030;-72
2021/12/28 02:42:22;;;;;;;329.27;80.40;;;6.80;99.90;;;;;;4988478;28;20046;-72
2021/12/28 02:45:07;;;;;;;330.92;81.68;;;6.80;99.90;;;;;;4989288;28;20231;-72
2021/12/28 02:47:34;;;;;;;321.85;77.97;;;6.90;99.90;;;;;;4983427;28;20034;-72
2021/12/28 02:50:00;;;;;;;299.55;74.82;;;7.00;99.90;;;;;;4987906;28;20073;-72
2021/12/28 02:52:25;;;;;;;287.60;77.35;;;7.00;99.90;;;;;;4990805;28;20080;-72
2021/12/28 02:54:51;;;;;;;299.42;74.90;;;6.90;99.90;;;;;;5008331;28;20045;-72
2021/12/28 02:57:17;;;;;;;265.67;74.13;;;6.90;99.90;;;;;;4983288;28;20533;-72
2021/12/28 02:59:47;;;;;;;248.85;72.55;;;7.00;99.90;;;;;;4984514;28;20041;-72
2021/12/28 03:02:14;;;;;;;278.75;73.95;;;7.00;99.90;;;;;;4971848;28;20061;-72
2021/12/28 03:04:40;;;;;;;287.48;73.70;;;7.00;99.90;;;;;;4987323;28;20038;-72
2021/12/28 03:07:06;;;;;;;245.15;71.25;;;7.00;99.90;;;;;;4986091;28;20521;-72
2021/12/28 03:09:31;;;;;;;255.57;71.65;;;7.00;99.90;;;;;;4984291;28;20068;-72
2021/12/28 03:11:57;;;;;;;245.10;69.32;;;7.10;99.90;;;;;;4985243;28;20550;-72
2021/12/28 03:14:23;;;;;;;275.45;70.88;;;7.10;99.90;;;;;;4987339;28;20413;-72
2021/12/28 03:16:48;;;;;;;250.23;69.38;;;7.10;99.90;;;;;;4986389;28;20513;-72
2021/12/28 03:19:14;;;;;;;240.80;66.45;;;7.10;99.90;;;;;;4994809;28;20038;-73
2021/12/28 03:21:41;;;;;;;238.95;66.65;;;7.10;99.90;;;;;;4989143;28;20511;-73
2021/12/28 03:24:08;;;;;;;206.68;64.60;;;7.10;99.90;;;;;;4986690;28;20789;-73
2021/12/28 03:26:35;;;;;;;203.88;64.25;;;7.10;99.90;;;;;;4987790;28;20038;-73
2021/12/28 03:29:00;;;;;;;206.95;65.28;;;7.10;99.90;;;;;;4986326;28;20034;-73
2021/12/28 03:31:26;;;;;;;211.75;65.20;;;7.10;99.90;;;;;;4990287;28;20091;-73
2021/12/28 03:33:54;;;;;;;214.32;63.85;;;7.10;99.90;;;;;;4987395;28;20042;-73
2021/12/28 03:36:22;;;;;;;213.05;65.47;;;7.10;99.90;;;;;;4991804;28;20065;-74
2021/12/28 03:38:48;;;;;;;211.48;65.45;;;7.00;99.90;;;;;;4998947;28;20038;-73
2021/12/28 03:41:16;;;;;;;213.30;64.97;;;7.10;99.90;;;;;;4985295;28;20038;-73
2021/12/28 03:43:45;;;;;;;229.57;66.50;;;7.10;99.90;;;;;;4986061;28;20130;-73
2021/12/28 03:46:12;;;;;;;233.95;67.15;;;7.10;99.90;;;;;;4985271;28;20046;-73
2021/12/28 03:48:39;;;;;;;271.70;70.05;;;7.10;99.90;;;;;;4985187;28;20064;-73
2021/12/28 03:51:06;;;;;;;247.60;67.32;;;7.10;99.90;;;;;;4972620;28;20034;-74
2021/12/28 03:53:33;;;;;;;233.50;66.93;;;7.10;99.90;;;;;;4987758;28;20033;-74
2021/12/28 03:56:00;;;;;;;221.88;65.35;;;7.00;99.90;;;;;;4985671;28;20049;-73
2021/12/28 03:58:25;;;;;;;195.98;61.63;;;7.00;99.90;;;;;;4995290;28;20091;-73
2021/12/28 04:00:54;;;;;;;204.77;59.47;;;7.00;99.90;;;;;;4977722;28;20410;-74
2021/12/28 04:03:20;;;;;;;217.38;60.47;;;7.00;99.90;;;;;;4959500;28;20130;-73
2021/12/28 04:05:49;;;;;;;181.02;58.22;;;6.90;99.90;;;;;;4952213;28;20137;-73
2021/12/28 04:08:22;;;;;;;177.93;57.33;;;6.80;99.90;;;;;;4992883;28;20104;-73
2021/12/28 04:11:15;;;;;;;189.35;57.35;;;6.80;99.90;;;;;;4978383;28;20038;-73
2021/12/28 04:13:48;;;;;;;176.82;53.95;;;6.70;99.90;;;;;;4988196;28;20053;-73
2021/12/28 04:16:17;;;;;;;190.50;56.20;;;6.70;99.90;;;;;;4977802;28;20056;-73
2021/12/28 04:18:44;;;;;;;204.50;58.00;;;6.70;99.90;;;;;;4976976;28;20049;-74
2021/12/28 04:21:11;;;;;;;167.70;54.42;;;6.60;99.90;;;;;;5006198;28;20117;-72
2021/12/28 04:23:37;;;;;;;154.60;51.80;;;6.60;99.90;;;;;;4989864;28;20042;-73
2021/12/28 04:26:05;;;;;;;167.13;54.95;;;6.50;99.90;;;;;;4978533;28;20041;-72
2021/12/28 04:28:31;;;;;;;174.77;55.75;;;6.50;99.90;;;;;;4999750;28;20049;-72
2021/12/28 04:30:56;;;;;;;172.10;54.97;;;6.50;99.90;;;;;;4993558;28;20485;-73
2021/12/28 04:33:22;;;;;;;170.25;53.90;;;6.50;99.90;;;;;;4988235;28;20057;-73
2021/12/28 04:35:49;;;;;;;175.23;54.90;;;6.50;99.90;;;;;;5005237;28;20040;-73
2021/12/28 04:38:15;;;;;;;169.98;52.75;;;6.50;99.90;;;;;;5011361;28;20421;-73
2021/12/28 04:40:40;;;;;;;213.18;55.45;;;6.50;99.90;;;;;;4989807;28;20211;-72
2021/12/28 04:43:07;;;;;;;141.93;50.55;;;6.50;99.90;;;;;;4977603;28;20038;-73
2021/12/28 04:45:36;;;;;;;167.02;51.45;;;6.40;99.90;;;;;;5007400;28;20379;-73
2021/12/28 04:48:02;;;;;;;146.98;50.22;;;6.40;99.90;;;;;;4991511;28;20485;-73
2021/12/28 04:50:29;;;;;;;164.00;52.00;;;6.40;99.90;;;;;;4990861;28;20046;-73
2021/12/28 04:52:58;;;;;;;153.52;49.45;;;6.40;99.90;;;;;;4978035;28;20267;-73
2021/12/28 04:55:32;;;;;;;155.98;48.95;;;6.40;99.90;;;;;;4997007;28;20072;-73
2021/12/28 04:57:59;;;;;;;169.07;49.07;;;6.40;99.90;;;;;;4993664;28;20076;-73
2021/12/28 05:00:27;;;;;;;150.25;48.20;;;6.40;99.90;;;;;;4962320;28;20049;-73
2021/12/28 05:02:53;;;;;;;157.57;50.42;;;6.40;99.90;;;;;;4977359;28;20478;-74
2021/12/28 05:05:19;;;;;;;155.98;49.20;;;6.40;99.90;;;;;;4989001;28;20044;-73
2021/12/28 05:07:44;;;;;;;163.50;47.38;;;6.40;99.90;;;;;;4989786;28;20044;-73
2021/12/28 05:10:10;;;;;;;228.18;51.47;;;6.40;99.90;;;;;;4985514;28;20121;-73
2021/12/28 05:12:36;;;;;;;184.98;46.85;;;6.40;99.90;;;;;;4990478;28;20038;-72
2021/12/28 05:15:03;;;;;;;140.13;44.88;;;6.30;99.90;;;;;;4991356;28;20168;-72
2021/12/28 05:17:29;;;;;;;162.85;44.90;;;6.30;99.90;;;;;;4991494;28;20473;-72
2021/12/28 05:19:55;;;;;;;159.73;46.05;;;6.20;99.90;;;;;;4989403;28;20044;-73
2021/12/28 05:22:21;;;;;;;177.13;45.80;;;6.20;99.90;;;;;;4991738;28;20046;-73
2021/12/28 05:24:46;;;;;;;165.65;46.35;;;6.20;99.90;;;;;;4988836;28;20049;-73
2021/12/28 05:27:12;;;;;;;194.02;48.30;;;6.20;99.90;;;;;;4989093;28;20478;-73
2021/12/28 05:29:38;;;;;;;166.90;45.28;;;6.20;99.90;;;;;;4990002;28;20034;-73
2021/12/28 05:32:04;;;;;;;156.48;43.30;;;6.20;99.90;;;;;;4987954;28;20080;-73
2021/12/28 05:34:30;;;;;;;249.43;48.28;;;6.20;99.90;;;;;;4987802;28;20057;-72
2021/12/28 05:36:55;;;;;;;153.27;43.30;;;6.10;99.90;;;;;;4984984;28;20042;-72
2021/12/28 05:39:21;;;;;;;133.55;41.55;;;6.10;99.90;;;;;;4989574;28;20038;-73
2021/12/28 05:41:47;;;;;;;325.88;49.88;;;6.10;99.90;;;;;;4991433;28;20041;-72
2021/12/28 05:44:12;;;;;;;129.65;40.20;;;6.20;99.90;;;;;;4985737;28;20038;-73
2021/12/28 05:46:38;;;;;;;134.57;40.05;;;6.10;99.90;;;;;;4992017;28;20104;-72
2021/12/28 05:49:04;;;;;;;144.45;40.17;;;6.10;99.90;;;;;;4991870;28;20049;-72
2021/12/28 05:51:30;;;;;;;740.58;59.25;;;6.10;99.90;;;;;;4990948;28;20041;-73
2021/12/28 05:53:55;;;;;;;780.90;58.28;;;6.00;99.90;;;;;;4990272;28;20046;-73
2021/12/28 05:56:21;;;;;;;207.23;35.33;;;5.90;99.90;;;;;;4985830;28;20418;-73
2021/12/28 05:58:46;;;;;;;694.67;52.25;;;5.90;99.90;;;;;;4987154;28;20046;-73
2021/12/28 06:01:12;;;;;;;178.30;34.10;;;5.80;99.90;;;;;;4988922;28;20053;-72
2021/12/28 06:03:38;;;;;;;146.45;36.30;;;5.80;99.90;;;;;;4988357;28;20129;-73
2021/12/28 06:06:04;;;;;;;108.03;31.83;;;5.70;99.90;;;;;;4989328;28;20125;-72
2021/12/28 06:08:30;;;;;;;321.40;40.25;;;5.70;99.90;;;;;;4988991;28;20100;-72
2021/12/28 06:10:56;;;;;;;186.30;35.42;;;5.70;99.90;;;;;;4989030;28;20045;-73
2021/12/28 06:13:23;;;;;;;132.15;34.95;;;5.60;99.90;;;;;;4991806;28;20049;-73
2021/12/28 06:15:49;;;;;;;140.25;35.58;;;5.60;99.90;;;;;;4986252;28;20406;-73
2021/12/28 06:18:14;;;;;;;116.25;34.33;;;5.60;99.90;;;;;;4990469;28;20054;-72
2021/12/28 06:20:40;;;;;;;121.88;35.45;;;5.60;99.90;;;;;;4968619;28;20055;-72
2021/12/28 06:23:06;;;;;;;132.80;35.88;;;5.60;99.90;;;;;;4974739;28;20044;-72
2021/12/28 06:25:33;;;;;;;128.27;35.70;;;5.60;99.90;;;;;;4988288;28;20837;-73
2021/12/28 06:27:59;;;;;;;101.57;34.45;;;5.70;99.90;;;;;;4987972;28;20115;-73
2021/12/28 06:30:24;;;;;;;115.45;36.25;;;5.70;99.90;;;;;;4988183;28;20444;-73
2021/12/28 06:32:50;;;;;;;114.50;35.78;;;5.70;99.90;;;;;;4988042;28;20045;-73
2021/12/28 06:35:16;;;;;;;102.30;34.78;;;5.70;99.90;;;;;;4972983;28;20421;-72
2021/12/28 06:37:43;;;;;;;124.78;36.70;;;5.80;99.90;;;;;;4988663;28;20079;-72
2021/12/28 06:40:11;;;;;;;101.40;33.90;;;5.80;99.90;;;;;;4985356;28;20046;-73
2021/12/28 06:42:37;;;;;;;100.32;32.13;;;5.80;99.90;;;;;;4973824;28;20105;-72
2021/12/28 06:45:03;;;;;;;104.57;32.75;;;5.90;99.90;;;;;;5005547;28;20489;-73
2021/12/28 06:47:29;;;;;;;112.20;34.90;;;5.90;99.90;;;;;;4990287;28;20045;-73
2021/12/28 06:49:55;;;;;;;91.38;32.30;;;6.00;99.90;;;;;;4987531;28;20042;-73
2021/12/28 06:52:20;;;;;;;88.03;31.83;;;6.00;99.90;;;;;;4975276;28;20033;-73
2021/12/28 06:54:46;;;;;;;90.22;31.10;;;6.10;99.90;;;;;;4990158;28;20049;-73
2021/12/28 06:57:12;;;;;;;89.05;31.10;;;6.10;99.90;;;;;;4973513;28;20042;-72
2021/12/28 06:59:43;;;;;;;83.97;30.40;;;6.20;99.90;;;;;;4986513;28;20044;-72
2021/12/28 07:02:10;;;;;;;86.50;30.00;;;6.20;99.90;;;;;;4983757;28;20156;-73
2021/12/28 07:04:36;;;;;;;75.75;28.73;;;6.20;99.90;;;;;;4984895;28;20072;-73
2021/12/28 07:07:02;;;;;;;77.15;28.15;;;6.20;99.90;;;;;;4983566;28;20573;-73
2021/12/28 07:09:27;;;;;;;78.50;26.92;;;6.30;99.90;;;;;;4987951;28;20120;-73
2021/12/28 07:11:53;;;;;;;76.15;27.30;;;6.30;99.90;;;;;;4987488;28;20615;-72
2021/12/28 07:14:19;;;;;;;69.20;26.40;;;6.30;99.90;;;;;;4988911;28;20077;-74
2021/12/28 07:16:44;;;;;;;75.70;26.40;;;6.30;99.90;;;;;;4971289;28;20044;-73
2021/12/28 07:19:11;;;;;;;68.20;24.75;;;6.30;99.90;;;;;;4986308;28;20061;-73
2021/12/28 07:21:38;;;;;;;71.65;24.63;;;6.30;99.90;;;;;;4987935;28;20041;-74
2021/12/28 07:24:08;;;;;;;70.03;26.00;;;6.20;99.90;;;;;;4986514;28;20563;-74
2021/12/28 07:26:35;;;;;;;73.53;25.65;;;6.30;99.90;;;;;;4987450;28;20496;-74
2021/12/28 07:29:02;;;;;;;63.05;25.73;;;6.20;99.90;;;;;;4989886;28;20050;-74
2021/12/28 07:31:28;;;;;;;65.82;24.85;;;6.30;99.90;;;;;;4985229;28;20228;-73
2021/12/28 07:33:54;;;;;;;70.75;25.98;;;6.20;99.90;;;;;;4984626;28;20030;-73
2021/12/28 07:36:20;;;;;;;65.63;25.80;;;6.20;99.90;;;;;;4984213;28;20049;-73
2021/12/28 07:38:46;;;;;;;70.40;26.80;;;6.30;99.90;;;;;;4990654;28;20060;-73
2021/12/28 07:41:12;;;;;;;63.33;26.27;;;6.30;99.90;;;;;;4986276;28;20457;-73
2021/12/28 07:43:37;;;;;;;66.07;25.25;;;6.30;99.90;;;;;;4988372;28;20062;-73
2021/12/28 07:46:03;;;;;;;59.55;23.80;;;6.30;99.90;;;;;;5009764;28;20064;-72
2021/12/28 07:48:29;;;;;;;59.83;23.20;;;6.30;99.90;;;;;;5031995;23;20042;-73
2021/12/28 07:50:55;;;;;;;60.55;24.20;;;6.30;99.90;;;;;;4993154;28;20033;-73
2021/12/28 07:53:21;;;;;;;66.25;24.00;;;6.30;99.90;;;;;;4995734;28;20524;-73
2021/12/28 07:55:46;;;;;;;58.10;23.63;;;6.30;99.90;;;;;;4992554;28;20485;-74
2021/12/28 07:58:12;;;;;;;59.13;22.80;;;6.30;99.90;;;;;;4993266;28;20061;-74
2021/12/28 08:00:37;;;;;;;61.45;23.58;;;6.30;99.90;;;;;;4995920;28;20040;-74
2021/12/28 08:03:04;;;;;;;65.03;22.73;;;6.30;99.90;;;;;;4987882;28;20046;-74
2021/12/28 08:05:35;;;;;;;69.70;23.45;;;6.30;99.90;;;;;;4986412;28;20033;-73
2021/12/28 08:08:02;;;;;;;57.65;22.35;;;6.30;99.90;;;;;;4988957;28;20076;-74
2021/12/28 08:10:29;;;;;;;64.90;22.17;;;6.30;99.90;;;;;;4989558;28;20037;-73
2021/12/28 08:12:56;;;;;;;55.05;22.50;;;6.40;99.90;;;;;;4989414;28;20132;-73
2021/12/28 08:15:24;;;;;;;54.60;21.80;;;6.40;99.90;;;;;;4993087;28;20485;-73
2021/12/28 08:17:50;;;;;;;60.63;23.10;;;6.30;99.90;;;;;;4992216;28;20069;-73
2021/12/28 08:20:17;;;;;;;59.80;23.50;;;6.40;99.90;;;;;;4989055;28;20046;-73
2021/12/28 08:22:44;;;;;;;60.05;22.00;;;6.30;99.90;;;;;;4991333;28;20155;-73
2021/12/28 08:25:12;;;;;;;63.10;22.40;;;6.40;99.90;;;;;;4989206;28;20034;-73
2021/12/28 08:27:39;;;;;;;52.13;22.02;;;6.40;99.90;;;;;;4989735;28;20132;-74
2021/12/28 08:30:07;;;;;;;59.22;21.52;;;6.40;99.90;;;;;;4990364;28;20033;-74
2021/12/28 08:32:32;;;;;;;60.22;22.05;;;6.40;99.90;;;;;;4990687;28;20074;-74
2021/12/28 08:34:58;;;;;;;61.58;21.52;;;6.40;99.90;;;;;;4992914;28;20568;-74
2021/12/28 08:37:24;;;;;;;60.53;21.88;;;6.40;99.90;;;;;;4992571;28;20045;-73
2021/12/28 08:39:49;;;;;;;52.45;21.23;;;6.40;99.90;;;;;;4990230;28;20124;-73
2021/12/28 08:42:15;;;;;;;53.00;20.52;;;6.40;99.90;;;;;;4998102;28;20079;-73
2021/12/28 08:44:41;;;;;;;53.75;21.10;;;6.50;99.90;;;;;;4996695;28;20145;-73
2021/12/28 08:47:07;;;;;;;56.42;20.65;;;6.50;99.90;;;;;;4989453;28;20149;-73
2021/12/28 08:49:32;;;;;;;55.35;19.85;;;6.40;99.90;;;;;;4988894;28;20033;-74
2021/12/28 08:51:58;;;;;;;50.95;18.63;;;6.50;99.90;;;;;;4998025;28;20117;-74
2021/12/28 08:54:24;;;;;;;52.40;19.98;;;6.50;99.90;;;;;;4988259;28;21972;-74
2021/12/28 08:56:51;;;;;;;52.05;19.15;;;6.50;99.90;;;;;;4985763;28;20474;-73
2021/12/28 08:59:18;;;;;;;48.97;17.90;;;6.50;99.90;;;;;;5001759;28;20069;-73
2021/12/28 09:01:45;;;;;;;47.58;18.63;;;6.50;99.90;;;;;;4983160;28;20184;-73
2021/12/28 09:04:10;;;;;;;51.85;18.95;;;6.60;99.90;;;;;;4991220;28;20053;-73
2021/12/28 09:06:36;;;;;;;49.20;17.60;;;6.60;99.90;;;;;;4996205;28;20497;-73
2021/12/28 09:09:02;;;;;;;49.42;18.55;;;6.60;99.90;;;;;;4990602;28;20049;-73
2021/12/28 09:11:28;;;;;;;52.03;17.98;;;6.60;99.90;;;;;;4974616;28;20038;-73
2021/12/28 09:13:54;;;;;;;42.80;17.27;;;6.70;99.90;;;;;;4956900;28;20044;-73
2021/12/28 09:16:19;;;;;;;46.90;17.38;;;6.80;99.90;;;;;;4986407;28;20097;-73
2021/12/28 09:18:45;;;;;;;45.53;16.08;;;6.80;99.90;;;;;;4987574;28;20065;-73
2021/12/28 09:21:11;;;;;;;48.17;16.27;;;6.90;99.90;;;;;;4988281;28;20049;-73
2021/12/28 09:23:38;;;;;;;46.08;14.98;;;6.90;99.90;;;;;;4987869;28;20111;-73
2021/12/28 09:26:05;;;;;;;47.00;14.52;;;6.90;99.90;;;;;;4970471;28;20121;-73
2021/12/28 09:28:30;;;;;;;41.63;13.90;;;7.00;99.90;;;;;;4985732;28;20052;-73
2021/12/28 09:30:56;;;;;;;43.47;14.07;;;7.10;99.90;;;;;;4989445;28;20041;-73
2021/12/28 09:33:24;;;;;;;41.47;13.82;;;7.10;99.90;;;;;;4987158;28;20129;-73
2021/12/28 09:35:49;;;;;;;47.15;13.45;;;7.20;99.90;;;;;;4973173;28;20092;-73
2021/12/28 09:38:16;;;;;;;46.60;12.90;;;7.20;99.90;;;;;;4985848;28;20477;-73
2021/12/28 09:40:42;;;;;;;35.38;11.75;;;7.30;99.90;;;;;;4983560;28;20563;-73
2021/12/28 09:43:08;;;;;;;40.03;12.02;;;7.30;99.90;;;;;;4988537;28;20041;-74
2021/12/28 09:45:35;;;;;;;34.63;11.70;;;7.30;99.90;;;;;;4987077;28;20044;-73
2021/12/28 09:48:01;;;;;;;35.08;11.93;;;7.40;99.90;;;;;;4984891;28;20038;-73
2021/12/28 09:50:28;;;;;;;35.92;12.18;;;7.40;99.90;;;;;;4989466;28;20188;-73
2021/12/28 09:52:54;;;;;;;37.30;12.18;;;7.50;99.90;;;;;;4989253;28;20379;-73
2021/12/28 09:55:23;;;;;;;40.17;11.82;;;7.50;99.90;;;;;;4991683;28;20042;-74
2021/12/28 09:57:50;;;;;;;36.85;12.82;;;7.50;99.90;;;;;;4992583;28;20041;-73
2021/12/28 10:00:18;;;;;;;34.35;11.40;;;7.50;99.90;;;;;;4994493;28;20041;-73
2021/12/28 10:02:44;;;;;;;34.72;11.70;;;7.60;99.90;;;;;;4988475;28;20503;-74
2021/12/28 10:05:13;;;;;;;37.63;12.27;;;7.60;99.90;;;;;;4990335;28;20042;-75
2021/12/28 10:07:56;;;;;;;36.45;12.75;;;7.60;99.90;;;;;;4975364;28;20095;-75
2021/12/28 10:10:24;;;;;;;46.75;13.70;;;7.60;99.90;;;;;;4991067;28;20099;-74
2021/12/28 10:12:54;;;;;;;37.30;12.40;;;7.70;99.90;;;;;;4992661;28;20038;-74
2021/12/28 10:15:23;;;;;;;47.67;13.32;;;7.70;99.90;;;;;;4980762;28;20048;-73
2021/12/28 10:17:51;;;;;;;41.83;12.98;;;7.70;99.90;;;;;;4993368;28;20045;-73
2021/12/28 10:20:26;;;;;;;38.00;12.82;;;7.70;99.90;;;;;;4978147;28;20042;-73
2021/12/28 10:22:58;;;;;;;43.42;14.68;;;7.70;99.90;;;;;;4993220;28;20132;-73
2021/12/28 10:25:31;;;;;;;42.25;13.85;;;7.80;99.90;;;;;;4994362;28;20070;-73
2021/12/28 10:28:04;;;;;;;46.92;14.30;;;7.80;99.90;;;;;;4992942;28;20088;-73
2021/12/28 10:30:42;;;;;;;37.95;14.00;;;7.80;99.90;;;;;;4990278;28;20412;-73
2021/12/28 10:33:11;;;;;;;38.40;13.88;;;7.80;99.90;;;;;;4986217;28;20193;-73
2021/12/28 10:35:49;;;;;;;47.95;15.23;;;7.80;99.90;;;;;;4984575;28;20121;-73
2021/12/28 10:38:19;;;;;;;42.33;15.55;;;7.90;99.90;;;;;;4982109;28;20080;-73
2021/12/28 10:40:55;;;;;;;39.13;15.45;;;8.00;99.90;;;;;;4991320;28;20045;-73
2021/12/28 10:43:33;;;;;;;39.20;16.10;;;7.90;99.90;;;;;;4990016;28;20042;-73
2021/12/28 10:46:09;;;;;;;43.10;16.63;;;8.00;99.90;;;;;;4984055;28;20181;-73
2021/12/28 10:48:39;;;;;;;43.85;17.42;;;8.00;99.90;;;;;;4987744;28;20037;-73
2021/12/28 10:51:09;;;;;;;40.97;15.68;;;8.00;99.90;;;;;;4991618;28;20041;-73
2021/12/28 10:56:26;;;;;;;43.08;17.02;;;8.00;99.90;;;;;;4982829;28;20053;-73
2021/12/28 10:58:52;;;;;;;45.40;16.67;;;8.00;99.90;;;;;;4985160;28;20119;-73
2021/12/28 11:01:19;;;;;;;42.97;16.73;;;8.00;99.90;;;;;;4984686;28;20046;-73
2021/12/28 11:03:48;;;;;;;43.65;17.95;;;8.10;99.90;;;;;;4968623;28;20046;-73
2021/12/28 11:06:35;;;;;;;48.80;17.08;;;8.10;99.90;;;;;;4985857;28;20080;-73
2021/12/28 11:09:05;;;;;;;40.40;17.17;;;8.10;99.90;;;;;;4971181;28;20053;-73
2021/12/28 11:11:31;;;;;;;43.40;18.05;;;8.10;99.90;;;;;;4969066;28;20445;-74
2021/12/28 11:14:24;;;;;;;44.55;16.98;;;8.10;99.90;;;;;;4981060;28;20041;-74
2021/12/28 11:16:55;;;;;;;40.58;18.58;;;8.00;99.90;;;;;;4969213;28;20054;-73
2021/12/28 11:19:27;;;;;;;41.70;18.10;;;8.10;99.90;;;;;;4975086;28;20038;-73
2021/12/28 11:21:55;;;;;;;45.17;18.58;;;8.10;99.90;;;;;;4990619;28;20072;-73
2021/12/28 11:24:21;;;;;;;44.72;19.05;;;8.10;99.90;;;;;;4973566;28;20045;-73
2021/12/28 11:26:49;;;;;;;37.00;19.33;;;8.10;99.90;;;;;;4991052;28;20044;-73
2021/12/28 11:29:21;;;;;;;43.50;18.90;;;8.10;99.90;;;;;;4975825;28;20093;-73
2021/12/28 11:31:51;;;;;;;41.38;20.42;;;8.00;99.90;;;;;;4989715;28;20680;-74
2021/12/28 11:34:33;;;;;;;40.20;19.48;;;8.10;99.90;;;;;;4974643;28;20045;-74
2021/12/28 11:37:01;;;;;;;38.50;19.92;;;8.10;99.90;;;;;;4989117;28;20518;-74
2021/12/28 11:39:41;;;;;;;39.55;19.73;;;8.10;99.90;;;;;;4991415;28;20129;-74
2021/12/28 11:42:08;;;;;;;35.78;20.05;;;8.10;99.90;;;;;;4994283;28;20048;-74
2021/12/28 11:44:35;;;;;;;38.17;19.75;;;8.10;99.90;;;;;;4992477;28;20061;-81
2021/12/28 11:47:04;;;;;;;31.27;18.70;;;8.10;99.90;;;;;;4963447;28;20029;-74
2021/12/28 11:49:30;;;;;;;37.55;19.38;;;8.10;99.90;;;;;;4988275;28;20068;-70
2021/12/28 11:51:58;;;;;;;31.92;18.13;;;8.10;99.90;;;;;;4988141;28;20502;-71
2021/12/28 11:54:25;;;;;;;48.03;20.20;;;8.10;99.90;;;;;;4985987;28;20528;-68
2021/12/28 11:57:00;;;;;;;38.20;18.95;;;8.20;99.90;;;;;;4987312;28;20050;-72
2021/12/28 11:59:29;;;;;;;32.03;19.73;;;8.20;99.90;;;;;;4957064;28;20042;-73
2021/12/28 12:02:04;;;;;;;33.40;19.35;;;8.20;99.90;;;;;;4990100;28;20048;-72
2021/12/28 12:04:30;;;;;;;33.00;19.17;;;8.20;99.90;;;;;;4991281;28;20120;-73
2021/12/28 12:07:09;;;;;;;34.88;20.02;;;8.20;99.90;;;;;;4991400;28;20777;-73
2021/12/28 12:09:57;;;;;;;33.08;20.88;;;8.20;99.90;;;;;;4985985;28;20450;-72
2021/12/28 12:12:31;;;;;;;39.35;21.75;;;8.30;99.90;;;;;;4990100;28;20074;-72
2021/12/28 12:14:57;;;;;;;37.97;21.88;;;8.30;99.90;;;;;;4998219;28;20038;-72
2021/12/28 12:17:26;;;;;;;33.35;22.20;;;8.30;99.90;;;;;;4998886;28;20045;-72
2021/12/28 12:19:53;;;;;;;40.45;23.25;;;8.30;99.90;;;;;;4996071;28;20061;-72
2021/12/28 12:22:44;;;;;;;36.70;22.33;;;8.30;99.90;;;;;;4990551;28;20037;-73
2021/12/28 12:25:13;;;;;;;43.25;22.33;;;8.30;99.90;;;;;;4987619;28;20045;-72
2021/12/28 12:27:59;;;;;;;36.13;22.88;;;8.30;99.90;;;;;;4984782;28;20045;-72
2021/12/28 12:30:26;;;;;;;39.25;22.70;;;8.40;99.90;;;;;;4968302;28;20033;-72
2021/12/28 12:33:13;;;;;;;38.55;23.58;;;8.40;99.90;;;;;;4992144;28;20088;-72
2021/12/28 12:35:47;;;;;;;40.90;24.15;;;8.40;99.90;;;;;;4974430;28;20544;-72
2021/12/28 12:38:12;;;;;;;39.78;23.98;;;8.40;99.90;;;;;;4993514;28;20045;-72
2021/12/28 12:40:59;;;;;;;44.67;24.92;;;8.40;99.90;;;;;;4995130;28;20137;-72
2021/12/28 12:43:38;;;;;;;41.60;25.60;;;8.40;99.90;;;;;;4991191;28;20069;-72
2021/12/28 12:46:19;;;;;;;44.30;25.58;;;8.40;99.90;;;;;;4996047;28;20036;-72
2021/12/28 12:48:44;;;;;;;43.40;25.83;;;8.50;99.90;;;;;;4994649;28;20124;-72
2021/12/28 12:51:22;;;;;;;42.45;26.30;;;8.50;99.90;;;;;;4963466;28;20310;-72
2021/12/28 12:53:54;;;;;;;45.17;26.33;;;8.50;99.90;;;;;;4999467;28;20045;-72
2021/12/28 12:56:28;;;;;;;36.42;24.70;;;8.50;99.90;;;;;;4995595;28;20042;-72
2021/12/28 12:58:58;;;;;;;40.58;25.75;;;8.50;99.90;;;;;;4992977;28;20038;-72
2021/12/28 13:01:27;;;;;;;43.10;25.33;;;8.50;99.90;;;;;;4985986;28;20089;-72
2021/12/28 13:03:54;;;;;;;43.38;25.45;;;8.60;99.90;;;;;;4983938;28;20043;-72
2021/12/28 13:06:39;;;;;;;44.53;26.45;;;8.60;99.90;;;;;;4987122;28;20038;-72
2021/12/28 13:09:13;;;;;;;40.83;26.27;;;8.60;99.90;;;;;;4984853;28;20040;-72
2021/12/28 13:11:41;;;;;;;40.15;25.95;;;8.60;99.90;;;;;;4986095;28;20041;-72
2021/12/28 13:14:08;;;;;;;42.80;27.02;;;8.60;99.90;;;;;;4967744;28;20070;-72
2021/12/28 13:16:34;;;;;;;41.08;26.13;;;8.60;99.90;;;;;;4983236;28;20038;-72
2021/12/28 13:19:16;;;;;;;48.00;25.55;;;8.60;99.90;;;;;;4985681;28;20044;-72
2021/12/28 13:21:55;;;;;;;40.15;24.92;;;8.70;99.90;;;;;;4983109;28;20069;-72
2021/12/28 13:24:21;;;;;;;45.55;25.08;;;8.60;99.90;;;;;;4988141;28;20044;-72
2021/12/28 13:27:01;;;;;;;39.70;25.13;;;8.70;99.90;;;;;;4987134;28;20482;-72
2021/12/28 13:29:36;;;;;;;44.90;25.23;;;8.70;99.90;;;;;;4986787;28;20038;-72
2021/12/28 13:32:23;;;;;;;45.38;24.65;;;8.60;99.90;;;;;;4985030;28;20069;-72
2021/12/28 13:35:07;;;;;;;43.85;24.58;;;8.70;99.90;;;;;;4985241;28;20042;-72
2021/12/28 13:37:57;;;;;;;35.90;23.38;;;8.70;99.90;;;;;;4986684;28;20092;-72
2021/12/28 13:40:35;;;;;;;40.92;23.45;;;8.70;99.90;;;;;;4981896;28;20052;-72
2021/12/28 13:43:01;;;;;;;35.78;21.58;;;8.70;99.90;;;;;;4984548;28;20129;-73
2021/12/28 13:45:28;;;;;;;37.42;22.33;;;8.70;99.90;;;;;;4984170;28;20413;-74
2021/12/28 13:47:54;;;;;;;37.20;22.55;;;8.70;99.90;;;;;;4981530;28;20045;-73